createdAt,value
2022-12-08T00:00:22.960Z,7.28
2022-12-08T00:02:50.830Z,3.63
2022-12-08T00:05:35.826Z,5.82
2022-12-08T00:08:20.927Z,7.55
2022-12-08T00:10:49.380Z,4.93
2022-12-08T00:13:16.351Z,8.00
2022-12-08T00:15:42.712Z,6.75
2022-12-08T00:18:09.077Z,10.20
2022-12-08T00:20:35.393Z,10.70
2022-12-08T00:23:01.769Z,10.27
2022-12-08T00:25:28.093Z,9.68
2022-12-08T00:27:54.451Z,7.40
2022-12-08T00:30:20.806Z,10.60
2022-12-08T00:32:47.168Z,6.75
2022-12-08T00:35:13.576Z,10.68
2022-12-08T00:37:39.937Z,9.70
2022-12-08T00:40:06.793Z,10.57
2022-12-08T00:42:33.316Z,8.23
2022-12-08T00:44:59.667Z,7.28
2022-12-08T00:47:25.985Z,8.25
2022-12-08T00:49:52.384Z,7.80
2022-12-08T00:52:18.796Z,7.65
2022-12-08T00:54:45.141Z,8.23
2022-12-08T00:57:11.596Z,9.75
2022-12-08T00:59:37.885Z,9.27
2022-12-08T01:02:04.210Z,10.43
2022-12-08T01:04:30.665Z,13.25
2022-12-08T01:06:56.974Z,10.38
2022-12-08T01:09:23.420Z,10.07
2022-12-08T01:11:49.901Z,11.32
2022-12-08T01:14:16.282Z,11.00
2022-12-08T01:16:42.821Z,17.08
2022-12-08T01:19:10.672Z,10.52
2022-12-08T01:21:37.005Z,13.55
2022-12-08T01:24:03.474Z,10.00
2022-12-08T01:26:29.913Z,10.95
2022-12-08T01:28:56.285Z,13.18
2022-12-08T01:31:23.621Z,10.77
2022-12-08T01:33:50.284Z,10.88
2022-12-08T01:36:21.783Z,9.18
2022-12-08T01:38:48.252Z,8.73
2022-12-08T01:41:16.103Z,9.88
2022-12-08T01:43:54.222Z,7.10
2022-12-08T01:46:22.476Z,6.07
2022-12-08T01:48:50.061Z,4.18
2022-12-08T01:51:16.431Z,4.50
2022-12-08T01:53:43.484Z,4.15
2022-12-08T01:56:14.275Z,6.45
2022-12-08T01:58:45.987Z,8.05
2022-12-08T02:01:12.579Z,5.82
2022-12-08T02:03:58.800Z,4.47
2022-12-08T02:06:27.039Z,4.38
2022-12-08T02:08:57.444Z,9.15
2022-12-08T02:11:23.828Z,3.75
2022-12-08T02:13:52.034Z,3.88
2022-12-08T02:16:18.454Z,4.18
2022-12-08T02:19:08.245Z,5.95
2022-12-08T02:21:56.391Z,4.60
2022-12-08T02:24:25.489Z,5.38
2022-12-08T02:27:07.082Z,6.05
2022-12-08T02:29:59.481Z,6.20
2022-12-08T02:32:37.879Z,7.37
2022-12-08T02:35:13.131Z,9.70
2022-12-08T02:37:43.793Z,7.68
2022-12-08T02:40:25.571Z,9.07
2022-12-08T02:42:56.957Z,8.98
2022-12-08T02:45:31.252Z,8.60
2022-12-08T02:47:58.586Z,8.98
2022-12-08T02:50:26.810Z,10.35
2022-12-08T02:52:53.369Z,9.68
2022-12-08T02:55:22.748Z,12.15
2022-12-08T02:58:14.347Z,11.52
2022-12-08T03:00:44.588Z,11.18
2022-12-08T03:03:35.420Z,9.80
2022-12-08T03:06:06.562Z,10.88
2022-12-08T03:08:42.104Z,10.55
2022-12-08T03:11:27.356Z,17.55
2022-12-08T03:13:56.128Z,10.02
2022-12-08T03:16:27.443Z,6.65
2022-12-08T03:19:01.167Z,6.97
2022-12-08T03:21:28.393Z,7.88
2022-12-08T03:23:56.061Z,10.43
2022-12-08T03:26:45.481Z,9.80
2022-12-08T03:29:12.416Z,8.82
2022-12-08T03:31:41.612Z,9.23
2022-12-08T03:34:09.312Z,9.05
2022-12-08T03:36:36.005Z,9.23
2022-12-08T03:39:02.331Z,8.50
2022-12-08T03:41:28.753Z,7.25
2022-12-08T03:43:56.012Z,7.45
2022-12-08T03:48:48.967Z,6.50
2022-12-08T03:51:15.862Z,7.55
2022-12-08T03:53:42.604Z,5.07
2022-12-08T03:56:15.634Z,4.70
2022-12-08T03:58:42.988Z,8.93
2022-12-08T04:01:09.314Z,10.05
2022-12-08T04:03:35.632Z,4.75
2022-12-08T04:06:02.010Z,8.65
2022-12-08T04:08:28.351Z,4.47
2022-12-08T04:10:54.767Z,3.78
2022-12-08T04:13:21.145Z,3.05
2022-12-08T04:15:48.211Z,3.80
2022-12-08T04:18:14.657Z,3.03
2022-12-08T04:20:42.034Z,2.28
2022-12-08T04:23:08.576Z,4.90
2022-12-08T04:25:35.537Z,4.78
2022-12-08T04:28:02.498Z,3.00
2022-12-08T04:30:28.902Z,3.25
2022-12-08T04:32:55.309Z,3.92
2022-12-08T04:35:21.750Z,4.13
2022-12-08T04:37:48.154Z,4.45
2022-12-08T04:40:14.553Z,3.75
2022-12-08T04:42:41.187Z,4.50
2022-12-08T04:45:07.695Z,3.83
2022-12-08T04:47:34.064Z,7.85
2022-12-08T04:50:00.536Z,2.55
2022-12-08T04:52:26.907Z,3.40
2022-12-08T04:54:53.271Z,11.15
2022-12-08T04:57:19.658Z,2.55
2022-12-08T04:59:46.039Z,7.05
2022-12-08T05:02:13.433Z,5.35
2022-12-08T05:04:42.586Z,3.78
2022-12-08T05:07:11.571Z,3.30
2022-12-08T05:09:37.945Z,2.20
2022-12-08T05:12:04.758Z,2.92
2022-12-08T05:14:31.079Z,3.42
2022-12-08T05:16:57.384Z,2.63
2022-12-08T05:19:23.938Z,2.40
2022-12-08T05:21:50.292Z,2.40
2022-12-08T05:24:16.681Z,2.60
2022-12-08T05:26:43.044Z,2.85
2022-12-08T05:29:09.373Z,2.47
2022-12-08T05:31:35.792Z,2.55
2022-12-08T05:34:03.395Z,6.10
2022-12-08T05:36:30.007Z,4.32
2022-12-08T05:38:58.968Z,2.38
2022-12-08T05:41:25.364Z,3.22
2022-12-08T05:43:51.664Z,1.40
2022-12-08T05:46:18.066Z,1.20
2022-12-08T05:48:46.821Z,1.30
2022-12-08T05:51:16.902Z,1.58
2022-12-08T05:53:43.304Z,1.60
2022-12-08T05:56:09.640Z,2.25
2022-12-08T05:58:35.953Z,4.68
2022-12-08T06:01:03.177Z,1.35
2022-12-08T06:03:29.591Z,1.95
2022-12-08T06:05:55.970Z,4.63
2022-12-08T06:08:22.413Z,2.17
2022-12-08T06:10:49.371Z,2.28
2022-12-08T06:13:15.907Z,2.35
2022-12-08T06:15:44.872Z,1.95
2022-12-08T06:18:11.941Z,7.68
2022-12-08T06:20:38.271Z,2.75
2022-12-08T06:23:04.624Z,4.53
2022-12-08T06:25:30.946Z,1.55
2022-12-08T06:27:57.297Z,5.00
2022-12-08T06:30:23.661Z,4.28
2022-12-08T06:32:50.029Z,1.92
2022-12-08T06:35:16.430Z,2.60
2022-12-08T06:37:42.790Z,2.08
2022-12-08T06:40:09.339Z,1.60
2022-12-08T06:42:44.835Z,2.30
2022-12-08T06:45:11.756Z,3.97
2022-12-08T06:47:38.200Z,1.48
2022-12-08T06:50:05.508Z,2.85
2022-12-08T06:52:32.003Z,3.47
2022-12-08T06:54:58.503Z,1.83
2022-12-08T06:57:25.629Z,1.75
2022-12-08T06:59:51.961Z,2.30
2022-12-08T07:02:18.314Z,1.65
2022-12-08T07:04:44.681Z,1.25
2022-12-08T07:07:11.075Z,2.88
2022-12-08T07:09:37.513Z,2.25
2022-12-08T07:12:04.242Z,2.33
2022-12-08T07:14:30.631Z,1.50
2022-12-08T07:16:57.099Z,1.60
2022-12-08T07:19:23.494Z,1.77
2022-12-08T07:21:49.797Z,2.25
2022-12-08T07:24:16.157Z,1.50
2022-12-08T07:26:42.469Z,2.00
2022-12-08T07:29:09.805Z,4.30
2022-12-08T07:31:36.256Z,2.67
2022-12-08T07:34:02.617Z,3.10
2022-12-08T07:36:29.039Z,3.25
2022-12-08T07:38:55.553Z,7.00
2022-12-08T07:41:23.881Z,4.50
2022-12-08T07:43:50.545Z,4.50
2022-12-08T07:46:18.210Z,4.80
2022-12-08T07:48:44.717Z,6.05
2022-12-08T07:51:12.916Z,4.63
2022-12-08T07:53:42.539Z,5.63
2022-12-08T07:56:09.828Z,5.45
2022-12-08T07:58:36.201Z,4.88
2022-12-08T08:01:02.789Z,4.85
2022-12-08T08:03:29.258Z,5.93
2022-12-08T08:05:55.634Z,7.85
2022-12-08T08:08:22.042Z,4.72
2022-12-08T08:10:48.418Z,4.00
2022-12-08T08:13:14.776Z,5.30
2022-12-08T08:15:41.270Z,4.75
2022-12-08T08:18:07.825Z,4.72
2022-12-08T08:20:34.185Z,5.43
2022-12-08T08:23:00.539Z,3.75
2022-12-08T08:25:26.976Z,3.13
2022-12-08T08:27:54.185Z,2.60
2022-12-08T08:30:21.239Z,2.42
2022-12-08T08:32:48.395Z,2.35
2022-12-08T08:35:15.038Z,4.95
2022-12-08T08:37:47.076Z,2.72
2022-12-08T08:40:15.112Z,5.03
2022-12-08T08:42:41.480Z,2.47
2022-12-08T08:45:08.014Z,2.30
2022-12-08T08:47:34.346Z,3.88
2022-12-08T08:50:00.741Z,2.42
2022-12-08T08:52:27.116Z,2.10
2022-12-08T08:54:53.428Z,2.55
2022-12-08T08:57:25.269Z,2.20
2022-12-08T08:59:52.282Z,2.03
2022-12-08T09:02:19.017Z,2.17
2022-12-08T09:04:45.896Z,4.15
2022-12-08T09:07:12.788Z,2.78
2022-12-08T09:09:39.579Z,2.47
2022-12-08T09:12:06.077Z,3.10
2022-12-08T09:14:32.445Z,2.50
2022-12-08T09:16:58.797Z,4.15
2022-12-08T09:19:25.307Z,1.55
2022-12-08T09:21:51.691Z,2.03
2022-12-08T09:24:18.099Z,2.78
2022-12-08T09:26:44.814Z,2.00
2022-12-08T09:29:11.680Z,2.45
2022-12-08T09:31:38.224Z,2.38
2022-12-08T09:34:04.952Z,2.08
2022-12-08T09:36:31.401Z,1.88
2022-12-08T09:38:57.778Z,1.75
2022-12-08T09:41:24.052Z,2.00
2022-12-08T09:44:05.435Z,2.78
2022-12-08T09:46:33.851Z,2.28
2022-12-08T09:49:00.824Z,1.77
2022-12-08T09:51:34.917Z,1.95
2022-12-08T09:54:07.823Z,3.63
2022-12-08T09:56:36.381Z,1.60
2022-12-08T09:59:06.261Z,2.10
2022-12-08T10:01:34.482Z,2.20
2022-12-08T10:04:01.227Z,1.70
2022-12-08T10:06:31.237Z,2.65
2022-12-08T10:09:21.125Z,2.80
2022-12-08T10:12:04.167Z,2.47
2022-12-08T10:14:33.465Z,2.55
2022-12-08T10:17:11.250Z,4.30
2022-12-08T10:19:40.270Z,1.30
2022-12-08T10:22:18.905Z,3.65
2022-12-08T10:24:52.448Z,4.13
2022-12-08T10:27:18.930Z,3.28
2022-12-08T10:29:45.353Z,1.80
2022-12-08T10:32:16.634Z,1.80
2022-12-08T10:35:03.038Z,3.13
2022-12-08T10:37:29.411Z,2.80
2022-12-08T10:39:59.501Z,2.42
2022-12-08T10:42:28.474Z,3.65
2022-12-08T10:44:55.866Z,3.45
2022-12-08T10:47:23.624Z,2.00
2022-12-08T10:50:06.939Z,3.13
2022-12-08T10:52:37.838Z,3.90
2022-12-08T10:55:04.258Z,1.40
2022-12-08T10:57:30.549Z,1.35
2022-12-08T10:59:57.185Z,4.43
2022-12-08T11:02:23.878Z,1.20
2022-12-08T11:04:58.969Z,1.05
2022-12-08T11:07:25.567Z,2.13
2022-12-08T11:09:55.185Z,4.72
2022-12-08T11:12:22.001Z,2.78
2022-12-08T11:14:48.317Z,1.52
2022-12-08T11:17:15.996Z,6.55
2022-12-08T11:19:56.034Z,2.47
2022-12-08T11:22:22.400Z,1.50
2022-12-08T11:24:56.388Z,1.50
2022-12-08T11:27:22.808Z,2.10
2022-12-08T11:29:49.128Z,1.75
2022-12-08T11:32:15.422Z,1.55
2022-12-08T11:34:46.580Z,2.15
2022-12-08T11:37:35.146Z,1.83
2022-12-08T11:40:05.109Z,1.35
2022-12-08T11:42:35.425Z,2.00
2022-12-08T11:45:06.103Z,2.58
2022-12-08T11:47:56.261Z,2.33
2022-12-08T11:50:25.652Z,1.77
2022-12-08T11:52:52.386Z,1.38
2022-12-08T11:55:21.515Z,1.33
2022-12-08T11:57:48.557Z,1.50
2022-12-08T12:00:16.475Z,1.83
2022-12-08T12:02:45.775Z,1.60
2022-12-08T12:05:40.126Z,3.78
2022-12-08T12:08:22.903Z,1.50
2022-12-08T12:11:04.413Z,2.72
2022-12-08T12:13:54.433Z,2.20
2022-12-08T12:16:30.177Z,1.70
2022-12-08T12:18:59.166Z,2.28
2022-12-08T12:21:29.166Z,2.08
2022-12-08T12:23:57.724Z,3.15
2022-12-08T12:26:25.816Z,2.45
2022-12-08T12:28:57.613Z,5.45
2022-12-08T12:31:53.176Z,3.13
2022-12-08T12:34:24.346Z,2.10
2022-12-08T12:36:55.634Z,2.13
2022-12-08T12:39:25.125Z,2.72
2022-12-08T12:41:55.272Z,2.38
2022-12-08T12:44:23.943Z,2.13
2022-12-08T12:46:50.236Z,3.63
2022-12-08T12:49:35.140Z,1.25
2022-12-08T12:52:01.814Z,2.22
2022-12-08T12:54:29.480Z,1.00
2022-12-08T12:57:18.817Z,1.75
2022-12-08T12:59:47.852Z,1.30
2022-12-08T13:02:20.089Z,2.72
2022-12-08T13:04:54.310Z,1.67
2022-12-08T13:07:21.787Z,2.58
2022-12-08T13:09:55.332Z,3.17
2022-12-08T13:12:23.466Z,3.78
2022-12-08T13:14:51.004Z,2.33
2022-12-08T13:17:24.226Z,2.30
2022-12-08T13:19:53.974Z,3.13
2022-12-08T13:22:38.889Z,2.83
2022-12-08T13:25:23.694Z,2.67
2022-12-08T13:27:54.031Z,2.30
2022-12-08T13:30:39.104Z,3.00
2022-12-08T13:33:21.017Z,4.28
2022-12-08T13:35:51.446Z,2.67
2022-12-08T13:38:20.547Z,2.45
2022-12-08T13:40:47.160Z,1.98
2022-12-08T13:43:19.669Z,2.25
2022-12-08T13:46:48.769Z,2.78
2022-12-08T13:50:22.988Z,1.83
2022-12-08T13:57:23.759Z,1.80
2022-12-08T13:59:50.112Z,2.03
2022-12-08T14:02:48.936Z,1.83
2022-12-08T14:05:19.157Z,1.77
2022-12-08T14:07:47.032Z,2.17
2022-12-08T14:10:16.375Z,3.72
2022-12-08T14:12:45.713Z,2.92
2022-12-08T14:15:13.592Z,2.35
2022-12-08T14:17:40.373Z,2.60
2022-12-08T14:20:12.517Z,2.17
2022-12-08T14:22:39.639Z,2.40
2022-12-08T14:25:07.322Z,2.88
2022-12-08T14:27:35.552Z,2.85
2022-12-08T14:30:05.140Z,2.58
2022-12-08T14:32:37.584Z,3.20
2022-12-08T14:35:06.785Z,4.20
2022-12-08T14:37:43.763Z,3.20
2022-12-08T14:40:22.911Z,3.50
2022-12-08T14:42:55.309Z,3.88
2022-12-08T14:45:21.941Z,4.15
2022-12-08T14:47:48.593Z,5.03
2022-12-08T14:50:36.692Z,4.75
2022-12-08T14:53:03.401Z,4.47
2022-12-08T14:55:34.621Z,5.13
2022-12-08T14:58:01.044Z,4.88
2022-12-08T15:00:27.782Z,10.30
2022-12-08T15:02:55.686Z,6.57
2022-12-08T15:05:25.639Z,4.97
2022-12-08T15:07:53.635Z,5.95
2022-12-08T15:10:22.469Z,6.35
2022-12-08T15:13:03.885Z,4.93
2022-12-08T15:15:31.110Z,5.18
2022-12-08T15:18:00.814Z,5.57
2022-12-08T15:20:35.643Z,6.38
2022-12-08T15:23:02.493Z,6.45
2022-12-08T15:25:28.806Z,5.68
2022-12-08T15:27:56.510Z,9.50
2022-12-08T15:30:23.406Z,6.30
2022-12-08T15:32:52.168Z,7.15
2022-12-08T15:35:18.506Z,6.20
2022-12-08T15:37:44.965Z,6.55
2022-12-08T15:40:18.665Z,6.70
2022-12-08T15:42:44.970Z,6.45
2022-12-08T15:45:12.237Z,7.22
2022-12-08T15:47:38.641Z,6.88
2022-12-08T15:50:05.879Z,10.85
2022-12-08T15:52:32.660Z,7.03
2022-12-08T15:54:59.113Z,7.05
2022-12-08T15:58:04.621Z,7.22
2022-12-08T16:00:50.490Z,6.70
2022-12-08T16:03:34.097Z,8.13
2022-12-08T16:06:20.436Z,6.95
2022-12-08T16:08:49.693Z,5.95
2022-12-08T16:12:05.367Z,6.55
2022-12-08T16:15:39.720Z,6.43
2022-12-08T16:17:14.561Z,8.23
2022-12-08T16:19:40.998Z,7.82
2022-12-08T16:24:54.166Z,9.57
2022-12-08T16:28:00.157Z,8.77
2022-12-08T16:30:15.978Z,8.45
2022-12-08T16:32:42.457Z,8.80
2022-12-08T16:35:10.293Z,9.05
2022-12-08T16:37:36.640Z,10.05
2022-12-08T16:40:03.804Z,10.45
2022-12-08T16:42:40.238Z,12.75
2022-12-08T16:45:08.438Z,10.80
2022-12-08T16:47:35.646Z,14.98
2022-12-08T16:50:09.828Z,10.77
2022-12-08T16:52:36.203Z,10.82
2022-12-08T16:55:03.103Z,11.63
2022-12-08T16:57:29.708Z,11.43
2022-12-08T16:59:56.441Z,10.68
2022-12-08T17:02:22.797Z,10.00
2022-12-08T17:04:49.255Z,11.50
2022-12-08T17:07:16.238Z,12.82
2022-12-08T17:09:42.969Z,10.88
2022-12-08T17:12:10.572Z,11.73
2022-12-08T17:14:37.040Z,12.77
2022-12-08T17:17:03.651Z,11.15
2022-12-08T17:19:30.105Z,10.93
2022-12-08T17:21:56.499Z,9.50
2022-12-08T17:24:24.992Z,13.35
2022-12-08T17:26:52.798Z,10.77
2022-12-08T17:29:19.173Z,10.07
2022-12-08T17:31:45.559Z,10.82
2022-12-08T17:34:12.029Z,10.95
2022-12-08T17:36:38.340Z,10.88
2022-12-08T17:39:04.887Z,11.18
2022-12-08T17:41:31.632Z,10.77
2022-12-08T17:43:58.025Z,11.15
2022-12-08T17:46:24.525Z,11.32
2022-12-08T17:48:51.422Z,21.63
2022-12-08T17:51:17.719Z,12.27
2022-12-08T17:53:47.169Z,10.85
2022-12-08T17:56:18.990Z,20.83
2022-12-08T17:58:47.589Z,16.70
2022-12-08T18:01:19.939Z,13.55
2022-12-08T18:03:46.313Z,13.00
2022-12-08T18:06:12.776Z,11.52
2022-12-08T18:08:39.535Z,10.20
2022-12-08T18:11:10.551Z,13.43
2022-12-08T18:13:36.860Z,12.73
2022-12-08T18:16:03.233Z,16.45
2022-12-08T18:18:29.516Z,15.70
2022-12-08T18:20:55.847Z,18.17
2022-12-08T18:23:22.185Z,15.18
2022-12-08T18:25:48.492Z,40.50
2022-12-08T18:28:14.840Z,16.48
2022-12-08T18:30:41.263Z,17.38
2022-12-08T18:33:08.101Z,18.13
2022-12-08T18:35:34.569Z,17.17
2022-12-08T18:38:01.018Z,18.50
2022-12-08T18:40:27.740Z,15.43
2022-12-08T18:42:54.203Z,15.75
2022-12-08T18:45:23.289Z,17.38
2022-12-08T18:47:50.290Z,16.88
2022-12-08T18:50:18.316Z,17.33
2022-12-08T18:52:48.604Z,17.67
2022-12-08T18:55:15.588Z,17.27
2022-12-08T18:57:43.126Z,19.95
2022-12-08T19:00:11.585Z,17.77
2022-12-08T19:02:38.725Z,20.27
2022-12-08T19:05:05.603Z,22.33
2022-12-08T19:07:31.923Z,19.27
2022-12-08T19:09:59.199Z,19.30
2022-12-08T19:12:25.553Z,19.23
2022-12-08T19:14:51.973Z,21.50
2022-12-08T19:17:18.306Z,23.05
2022-12-08T19:19:44.641Z,24.30
2022-12-08T19:22:12.217Z,23.63
2022-12-08T19:24:38.586Z,24.08
2022-12-08T19:27:05.675Z,22.60
2022-12-08T19:29:32.061Z,25.30
2022-12-08T19:31:58.836Z,25.83
2022-12-08T19:34:25.211Z,27.08
2022-12-08T19:36:51.842Z,19.70
2022-12-08T19:39:38.469Z,26.50
2022-12-08T19:42:50.109Z,27.17
2022-12-08T19:45:18.176Z,24.10
2022-12-08T19:47:44.715Z,29.25
2022-12-08T19:50:30.847Z,28.42
2022-12-08T19:52:57.821Z,31.35
2022-12-08T19:55:24.686Z,29.75
2022-12-08T19:57:51.500Z,26.45
2022-12-08T20:00:19.109Z,30.02
2022-12-08T20:02:45.792Z,26.60
2022-12-08T20:05:13.325Z,29.50
2022-12-08T20:07:40.247Z,31.60
2022-12-08T20:10:08.725Z,35.40
2022-12-08T20:12:35.348Z,31.55
2022-12-08T20:15:01.653Z,32.75
2022-12-08T20:17:28.021Z,30.25
2022-12-08T20:19:54.376Z,29.67
2022-12-08T20:22:20.722Z,32.40
2022-12-08T20:24:57.242Z,29.65
2022-12-08T20:27:26.318Z,31.52
2022-12-08T20:29:52.663Z,32.63
2022-12-08T20:32:19.073Z,30.08
2022-12-08T20:34:45.483Z,29.27
2022-12-08T20:37:11.801Z,28.10
2022-12-08T20:39:38.533Z,26.73
2022-12-08T20:42:04.892Z,35.92
2022-12-08T20:44:31.356Z,27.88
2022-12-08T20:46:57.783Z,28.40
2022-12-08T20:49:32.782Z,31.55
2022-12-08T20:52:00.885Z,28.17
2022-12-08T20:54:28.075Z,30.42
2022-12-08T20:56:54.462Z,32.45
2022-12-08T20:59:20.846Z,32.97
2022-12-08T21:01:47.314Z,32.05
2022-12-08T21:04:14.040Z,34.25
2022-12-08T21:06:40.637Z,28.45
2022-12-08T21:09:07.320Z,33.00
2022-12-08T21:11:33.897Z,35.25
2022-12-08T21:14:00.351Z,36.70
2022-12-08T21:16:27.018Z,32.75
2022-12-08T21:18:53.567Z,37.38
2022-12-08T21:21:20.031Z,37.05
2022-12-08T21:23:46.621Z,36.70
2022-12-08T21:26:17.647Z,35.25
2022-12-08T21:28:45.565Z,36.72
2022-12-08T21:31:13.570Z,36.20
2022-12-08T21:33:40.299Z,30.85
2022-12-08T21:36:09.085Z,35.92
2022-12-08T21:38:36.251Z,37.55
2022-12-08T21:41:04.097Z,32.55
2022-12-08T21:43:30.728Z,31.63
2022-12-08T21:45:57.119Z,34.42
2022-12-08T21:48:23.536Z,37.42
2022-12-08T21:50:50.033Z,36.47
2022-12-08T21:53:16.622Z,32.47
2022-12-08T21:55:43.161Z,37.67
2022-12-08T21:58:09.695Z,35.20
2022-12-08T22:00:36.248Z,37.70
2022-12-08T22:03:03.547Z,40.60
2022-12-08T22:05:30.211Z,36.65
2022-12-08T22:07:56.805Z,36.78
2022-12-08T22:10:23.500Z,42.20
2022-12-08T22:12:49.816Z,39.50
2022-12-08T22:15:16.170Z,42.42
2022-12-08T22:17:43.496Z,45.40
2022-12-08T22:20:12.535Z,35.45
2022-12-08T22:22:39.256Z,46.88
2022-12-08T22:25:06.437Z,43.47
2022-12-08T22:27:33.422Z,44.63
2022-12-08T22:29:59.801Z,40.78
2022-12-08T22:32:26.420Z,45.60
2022-12-08T22:34:52.836Z,42.80
2022-12-08T22:37:19.467Z,45.70
2022-12-08T22:39:46.001Z,40.55
2022-12-08T22:42:12.402Z,40.50
2022-12-08T22:44:38.700Z,40.30
2022-12-08T22:47:05.112Z,43.15
2022-12-08T22:49:31.668Z,44.33
2022-12-08T22:51:58.209Z,37.35
2022-12-08T22:54:24.593Z,42.53
2022-12-08T22:56:51.048Z,38.65
2022-12-08T22:59:17.415Z,38.15
2022-12-08T23:01:43.762Z,42.90
2022-12-08T23:04:17.220Z,40.97
2022-12-08T23:06:44.185Z,43.85
2022-12-08T23:09:10.618Z,48.83
2022-12-08T23:11:37.184Z,45.53
2022-12-08T23:14:03.848Z,46.08
2022-12-08T23:16:30.436Z,41.15
2022-12-08T23:18:57.002Z,45.47
2022-12-08T23:21:23.434Z,43.88
2022-12-08T23:23:50.068Z,49.42
2022-12-08T23:26:18.165Z,52.92
2022-12-08T23:28:44.546Z,48.45
2022-12-08T23:31:10.847Z,52.28
2022-12-08T23:33:37.257Z,43.72
2022-12-08T23:36:03.895Z,42.58
2022-12-08T23:38:30.327Z,48.13
2022-12-08T23:41:00.212Z,47.20
2022-12-08T23:43:26.577Z,42.63
2022-12-08T23:45:53.044Z,46.25
2022-12-08T23:48:19.585Z,37.72
2022-12-08T23:50:46.143Z,44.75
2022-12-08T23:53:12.743Z,43.42
2022-12-08T23:55:39.127Z,44.90
2022-12-08T23:58:05.637Z,43.53
